sensor_id;sensor_type;location;lat;lon;timestamp;P1;durP1;ratioP1;P2;durP2;ratioP2
60714;SDS011;46564;53.096;8.246;2024-02-21T00:03:10;37.00;;;14.05;;
60714;SDS011;46564;53.096;8.246;2024-02-21T00:08:11;30.45;;;13.35;;
60714;SDS011;46564;53.096;8.246;2024-02-21T00:13:13;38.65;;;15.80;;
60714;SDS011;46564;53.096;8.246;2024-02-21T00:18:14;35.15;;;15.18;;
60714;SDS011;46564;53.096;8.246;2024-02-21T00:23:16;45.60;;;16.40;;
60714;SDS011;46564;53.096;8.246;2024-02-21T00:28:19;30.02;;;12.98;;
60714;SDS011;46564;53.096;8.246;2024-02-21T00:33:22;28.60;;;13.93;;
60714;SDS011;46564;53.096;8.246;2024-02-21T00:38:23;39.83;;;14.35;;
60714;SDS011;46564;53.096;8.246;2024-02-21T00:43:25;38.65;;;15.93;;
60714;SDS011;46564;53.096;8.246;2024-02-21T00:48:27;32.17;;;14.57;;
60714;SDS011;46564;53.096;8.246;2024-02-21T00:53:28;41.97;;;15.38;;
60714;SDS011;46564;53.096;8.246;2024-02-21T00:58:30;38.50;;;14.32;;
60714;SDS011;46564;53.096;8.246;2024-02-21T01:03:31;33.22;;;13.80;;
60714;SDS011;46564;53.096;8.246;2024-02-21T01:08:33;27.65;;;12.70;;
60714;SDS011;46564;53.096;8.246;2024-02-21T01:13:38;41.90;;;14.82;;
60714;SDS011;46564;53.096;8.246;2024-02-21T01:18:40;31.52;;;13.65;;
60714;SDS011;46564;53.096;8.246;2024-02-21T01:23:42;39.58;;;13.82;;
60714;SDS011;46564;53.096;8.246;2024-02-21T01:28:43;31.25;;;13.38;;
60714;SDS011;46564;53.096;8.246;2024-02-21T01:33:45;26.13;;;12.25;;
60714;SDS011;46564;53.096;8.246;2024-02-21T01:38:47;29.77;;;13.57;;
60714;SDS011;46564;53.096;8.246;2024-02-21T01:43:51;32.70;;;11.95;;
60714;SDS011;46564;53.096;8.246;2024-02-21T01:48:52;37.45;;;12.75;;
60714;SDS011;46564;53.096;8.246;2024-02-21T01:53:54;30.48;;;12.32;;
60714;SDS011;46564;53.096;8.246;2024-02-21T01:58:56;26.88;;;12.02;;
60714;SDS011;46564;53.096;8.246;2024-02-21T02:03:59;30.23;;;11.50;;
60714;SDS011;46564;53.096;8.246;2024-02-21T02:09:00;34.15;;;13.25;;
60714;SDS011;46564;53.096;8.246;2024-02-21T02:14:02;27.90;;;11.70;;
60714;SDS011;46564;53.096;8.246;2024-02-21T02:19:04;27.95;;;11.80;;
60714;SDS011;46564;53.096;8.246;2024-02-21T02:24:06;33.75;;;11.82;;
60714;SDS011;46564;53.096;8.246;2024-02-21T02:29:07;29.75;;;12.75;;
60714;SDS011;46564;53.096;8.246;2024-02-21T02:34:09;28.67;;;12.23;;
60714;SDS011;46564;53.096;8.246;2024-02-21T02:39:10;23.70;;;11.10;;
60714;SDS011;46564;53.096;8.246;2024-02-21T02:44:12;23.45;;;11.00;;
60714;SDS011;46564;53.096;8.246;2024-02-21T02:49:13;29.27;;;10.88;;
60714;SDS011;46564;53.096;8.246;2024-02-21T02:54:15;25.65;;;10.95;;
60714;SDS011;46564;53.096;8.246;2024-02-21T02:59:17;36.67;;;12.60;;
60714;SDS011;46564;53.096;8.246;2024-02-21T03:04:18;33.03;;;11.32;;
60714;SDS011;46564;53.096;8.246;2024-02-21T03:09:20;36.30;;;12.45;;
60714;SDS011;46564;53.096;8.246;2024-02-21T03:14:21;27.98;;;11.50;;
60714;SDS011;46564;53.096;8.246;2024-02-21T03:19:23;26.67;;;10.93;;
60714;SDS011;46564;53.096;8.246;2024-02-21T03:24:25;24.20;;;11.20;;
60714;SDS011;46564;53.096;8.246;2024-02-21T03:29:26;30.67;;;12.13;;
60714;SDS011;46564;53.096;8.246;2024-02-21T03:34:28;28.00;;;10.88;;
60714;SDS011;46564;53.096;8.246;2024-02-21T03:39:32;23.40;;;11.85;;
60714;SDS011;46564;53.096;8.246;2024-02-21T03:44:34;29.10;;;12.13;;
60714;SDS011;46564;53.096;8.246;2024-02-21T03:49:38;25.13;;;11.60;;
60714;SDS011;46564;53.096;8.246;2024-02-21T03:54:42;27.75;;;12.00;;
60714;SDS011;46564;53.096;8.246;2024-02-21T03:59:44;26.60;;;10.85;;
60714;SDS011;46564;53.096;8.246;2024-02-21T04:04:46;25.25;;;10.02;;
60714;SDS011;46564;53.096;8.246;2024-02-21T04:09:47;22.60;;;10.35;;
60714;SDS011;46564;53.096;8.246;2024-02-21T04:14:49;23.98;;;9.73;;
60714;SDS011;46564;53.096;8.246;2024-02-21T04:19:52;18.80;;;9.93;;
60714;SDS011;46564;53.096;8.246;2024-02-21T04:25:02;20.95;;;9.68;;
60714;SDS011;46564;53.096;8.246;2024-02-21T04:30:04;18.98;;;9.57;;
60714;SDS011;46564;53.096;8.246;2024-02-21T04:35:06;19.00;;;8.93;;
60714;SDS011;46564;53.096;8.246;2024-02-21T04:40:07;17.65;;;9.07;;
60714;SDS011;46564;53.096;8.246;2024-02-21T04:45:09;16.92;;;8.57;;
60714;SDS011;46564;53.096;8.246;2024-02-21T04:50:11;19.35;;;9.25;;
60714;SDS011;46564;53.096;8.246;2024-02-21T04:55:12;17.33;;;8.40;;
60714;SDS011;46564;53.096;8.246;2024-02-21T05:00:14;19.90;;;8.48;;
60714;SDS011;46564;53.096;8.246;2024-02-21T05:05:16;16.50;;;7.32;;
60714;SDS011;46564;53.096;8.246;2024-02-21T05:10:18;17.58;;;7.60;;
60714;SDS011;46564;53.096;8.246;2024-02-21T05:15:19;16.45;;;6.95;;
60714;SDS011;46564;53.096;8.246;2024-02-21T05:20:21;14.20;;;6.70;;
60714;SDS011;46564;53.096;8.246;2024-02-21T05:25:22;16.77;;;6.53;;
60714;SDS011;46564;53.096;8.246;2024-02-21T05:30:24;13.02;;;6.60;;
60714;SDS011;46564;53.096;8.246;2024-02-21T05:35:26;12.07;;;6.10;;
60714;SDS011;46564;53.096;8.246;2024-02-21T05:40:31;11.32;;;5.82;;
60714;SDS011;46564;53.096;8.246;2024-02-21T05:45:36;11.82;;;6.38;;
60714;SDS011;46564;53.096;8.246;2024-02-21T05:50:38;13.57;;;6.82;;
60714;SDS011;46564;53.096;8.246;2024-02-21T05:55:40;12.63;;;6.60;;
60714;SDS011;46564;53.096;8.246;2024-02-21T06:00:41;14.35;;;6.82;;
60714;SDS011;46564;53.096;8.246;2024-02-21T06:05:50;20.13;;;6.73;;
60714;SDS011;46564;53.096;8.246;2024-02-21T06:10:52;12.27;;;6.32;;
60714;SDS011;46564;53.096;8.246;2024-02-21T06:15:54;15.27;;;7.45;;
60714;SDS011;46564;53.096;8.246;2024-02-21T06:20:56;17.38;;;7.45;;
60714;SDS011;46564;53.096;8.246;2024-02-21T06:25:58;15.13;;;7.65;;
60714;SDS011;46564;53.096;8.246;2024-02-21T06:30:59;16.23;;;8.63;;
60714;SDS011;46564;53.096;8.246;2024-02-21T06:36:01;19.92;;;8.30;;
60714;SDS011;46564;53.096;8.246;2024-02-21T06:41:02;17.80;;;8.35;;
60714;SDS011;46564;53.096;8.246;2024-02-21T06:46:04;21.80;;;10.60;;
60714;SDS011;46564;53.096;8.246;2024-02-21T06:51:05;25.23;;;9.65;;
60714;SDS011;46564;53.096;8.246;2024-02-21T06:56:07;19.45;;;9.65;;
60714;SDS011;46564;53.096;8.246;2024-02-21T07:01:09;25.25;;;10.45;;
60714;SDS011;46564;53.096;8.246;2024-02-21T07:06:11;21.48;;;9.82;;
60714;SDS011;46564;53.096;8.246;2024-02-21T07:11:13;25.77;;;10.23;;
60714;SDS011;46564;53.096;8.246;2024-02-21T07:16:15;28.63;;;11.60;;
60714;SDS011;46564;53.096;8.246;2024-02-21T07:21:16;31.10;;;11.95;;
60714;SDS011;46564;53.096;8.246;2024-02-21T07:26:18;25.52;;;11.32;;
60714;SDS011;46564;53.096;8.246;2024-02-21T07:31:19;30.25;;;11.93;;
60714;SDS011;46564;53.096;8.246;2024-02-21T07:36:27;26.85;;;11.13;;
60714;SDS011;46564;53.096;8.246;2024-02-21T07:41:29;25.52;;;11.40;;
60714;SDS011;46564;53.096;8.246;2024-02-21T07:46:31;30.55;;;12.18;;
60714;SDS011;46564;53.096;8.246;2024-02-21T07:51:32;26.02;;;11.70;;
60714;SDS011;46564;53.096;8.246;2024-02-21T07:56:34;31.80;;;12.65;;
60714;SDS011;46564;53.096;8.246;2024-02-21T08:01:35;25.30;;;11.07;;
60714;SDS011;46564;53.096;8.246;2024-02-21T08:06:37;29.83;;;12.88;;
60714;SDS011;46564;53.096;8.246;2024-02-21T08:11:38;29.92;;;11.55;;
60714;SDS011;46564;53.096;8.246;2024-02-21T08:16:40;30.48;;;11.98;;
60714;SDS011;46564;53.096;8.246;2024-02-21T08:21:42;32.97;;;12.30;;
60714;SDS011;46564;53.096;8.246;2024-02-21T08:26:43;30.95;;;13.60;;
60714;SDS011;46564;53.096;8.246;2024-02-21T08:31:45;36.25;;;11.68;;
60714;SDS011;46564;53.096;8.246;2024-02-21T08:36:47;37.50;;;14.40;;
60714;SDS011;46564;53.096;8.246;2024-02-21T08:41:48;32.58;;;13.60;;
60714;SDS011;46564;53.096;8.246;2024-02-21T08:46:58;33.53;;;13.70;;
60714;SDS011;46564;53.096;8.246;2024-02-21T08:51:59;38.15;;;13.75;;
60714;SDS011;46564;53.096;8.246;2024-02-21T08:57:01;38.83;;;14.35;;
60714;SDS011;46564;53.096;8.246;2024-02-21T09:02:03;35.20;;;13.02;;
60714;SDS011;46564;53.096;8.246;2024-02-21T09:07:04;36.20;;;14.82;;
60714;SDS011;46564;53.096;8.246;2024-02-21T09:12:09;27.70;;;11.50;;
60714;SDS011;46564;53.096;8.246;2024-02-21T09:17:10;31.42;;;12.60;;
60714;SDS011;46564;53.096;8.246;2024-02-21T09:22:12;32.30;;;13.25;;
60714;SDS011;46564;53.096;8.246;2024-02-21T09:27:13;29.73;;;13.75;;
60714;SDS011;46564;53.096;8.246;2024-02-21T09:32:15;35.75;;;12.35;;
60714;SDS011;46564;53.096;8.246;2024-02-21T09:37:16;26.33;;;12.25;;
60714;SDS011;46564;53.096;8.246;2024-02-21T10:22:06;27.17;;;11.25;;
60714;SDS011;46564;53.096;8.246;2024-02-21T10:27:09;23.20;;;9.05;;
60714;SDS011;46564;53.096;8.246;2024-02-21T10:32:11;24.88;;;11.05;;
60714;SDS011;46564;53.096;8.246;2024-02-21T10:37:14;25.15;;;11.10;;
60714;SDS011;46564;53.096;8.246;2024-02-21T10:42:15;22.05;;;10.35;;
60714;SDS011;46564;53.096;8.246;2024-02-21T10:47:18;20.38;;;10.07;;
60714;SDS011;46564;53.096;8.246;2024-02-21T10:57:40;27.30;;;10.95;;
60714;SDS011;46564;53.096;8.246;2024-02-21T11:02:41;22.45;;;10.20;;
60714;SDS011;46564;53.096;8.246;2024-02-21T11:07:43;21.95;;;9.95;;
60714;SDS011;46564;53.096;8.246;2024-02-21T11:12:45;28.15;;;10.23;;
60714;SDS011;46564;53.096;8.246;2024-02-21T11:17:53;13.50;;;7.25;;
60714;SDS011;46564;53.096;8.246;2024-02-21T11:23:02;21.60;;;9.02;;
60714;SDS011;46564;53.096;8.246;2024-02-21T11:28:04;17.17;;;7.85;;
60714;SDS011;46564;53.096;8.246;2024-02-21T11:33:06;19.73;;;9.15;;
60714;SDS011;46564;53.096;8.246;2024-02-21T11:38:09;14.65;;;7.50;;
60714;SDS011;46564;53.096;8.246;2024-02-21T11:43:11;19.33;;;7.03;;
60714;SDS011;46564;53.096;8.246;2024-02-21T11:48:12;19.77;;;7.32;;
60714;SDS011;46564;53.096;8.246;2024-02-21T11:53:14;14.88;;;5.93;;
60714;SDS011;46564;53.096;8.246;2024-02-21T11:58:16;15.95;;;6.32;;
60714;SDS011;46564;53.096;8.246;2024-02-21T12:03:17;19.20;;;6.22;;
60714;SDS011;46564;53.096;8.246;2024-02-21T12:08:19;15.02;;;5.95;;
60714;SDS011;46564;53.096;8.246;2024-02-21T12:13:22;12.52;;;5.57;;
60714;SDS011;46564;53.096;8.246;2024-02-21T12:18:24;13.63;;;5.45;;
60714;SDS011;46564;53.096;8.246;2024-02-21T12:23:28;14.82;;;5.60;;
60714;SDS011;46564;53.096;8.246;2024-02-21T12:28:31;14.82;;;5.28;;
60714;SDS011;46564;53.096;8.246;2024-02-21T12:33:33;15.15;;;4.85;;
60714;SDS011;46564;53.096;8.246;2024-02-21T12:38:35;16.80;;;5.40;;
60714;SDS011;46564;53.096;8.246;2024-02-21T12:43:36;13.63;;;4.78;;
60714;SDS011;46564;53.096;8.246;2024-02-21T12:48:38;11.68;;;4.10;;
60714;SDS011;46564;53.096;8.246;2024-02-21T12:53:39;12.35;;;4.18;;
60714;SDS011;46564;53.096;8.246;2024-02-21T12:58:41;16.27;;;4.30;;
60714;SDS011;46564;53.096;8.246;2024-02-21T13:03:43;12.60;;;4.82;;
60714;SDS011;46564;53.096;8.246;2024-02-21T13:08:44;13.85;;;4.38;;
60714;SDS011;46564;53.096;8.246;2024-02-21T13:13:46;9.70;;;4.25;;
60714;SDS011;46564;53.096;8.246;2024-02-21T13:18:48;11.85;;;4.35;;
60714;SDS011;46564;53.096;8.246;2024-02-21T13:23:49;10.38;;;4.53;;
60714;SDS011;46564;53.096;8.246;2024-02-21T13:28:51;12.07;;;3.97;;
60714;SDS011;46564;53.096;8.246;2024-02-21T13:33:53;11.98;;;4.10;;
60714;SDS011;46564;53.096;8.246;2024-02-21T13:38:54;10.88;;;4.63;;
60714;SDS011;46564;53.096;8.246;2024-02-21T13:43:56;9.40;;;3.80;;
60714;SDS011;46564;53.096;8.246;2024-02-21T13:49:02;11.57;;;3.80;;
60714;SDS011;46564;53.096;8.246;2024-02-21T13:54:04;13.18;;;3.95;;
60714;SDS011;46564;53.096;8.246;2024-02-21T13:59:06;9.25;;;4.75;;
60714;SDS011;46564;53.096;8.246;2024-02-21T14:04:07;15.52;;;6.35;;
60714;SDS011;46564;53.096;8.246;2024-02-21T14:09:09;16.33;;;7.15;;
60714;SDS011;46564;53.096;8.246;2024-02-21T14:14:10;15.57;;;8.10;;
60714;SDS011;46564;53.096;8.246;2024-02-21T14:19:13;18.70;;;8.25;;
60714;SDS011;46564;53.096;8.246;2024-02-21T14:24:20;13.88;;;8.23;;
60714;SDS011;46564;53.096;8.246;2024-02-21T14:29:28;18.98;;;9.10;;
60714;SDS011;46564;53.096;8.246;2024-02-21T14:34:30;15.75;;;9.50;;
60714;SDS011;46564;53.096;8.246;2024-02-21T14:39:32;16.23;;;8.27;;
60714;SDS011;46564;53.096;8.246;2024-02-21T14:45:09;15.85;;;9.20;;
60714;SDS011;46564;53.096;8.246;2024-02-21T14:50:10;15.13;;;7.85;;
60714;SDS011;46564;53.096;8.246;2024-02-21T14:55:13;14.95;;;8.27;;
60714;SDS011;46564;53.096;8.246;2024-02-21T15:00:15;13.57;;;7.20;;
60714;SDS011;46564;53.096;8.246;2024-02-21T15:05:16;12.65;;;7.18;;
60714;SDS011;46564;53.096;8.246;2024-02-21T15:10:18;12.80;;;6.88;;
60714;SDS011;46564;53.096;8.246;2024-02-21T15:15:20;14.43;;;7.45;;
60714;SDS011;46564;53.096;8.246;2024-02-21T15:20:21;12.80;;;6.78;;
60714;SDS011;46564;53.096;8.246;2024-02-21T15:25:23;13.60;;;8.07;;
60714;SDS011;46564;53.096;8.246;2024-02-21T15:30:25;14.95;;;7.25;;
60714;SDS011;46564;53.096;8.246;2024-02-21T15:35:29;16.42;;;7.72;;
60714;SDS011;46564;53.096;8.246;2024-02-21T15:40:31;12.10;;;7.38;;
60714;SDS011;46564;53.096;8.246;2024-02-21T15:45:33;14.80;;;6.45;;
60714;SDS011;46564;53.096;8.246;2024-02-21T15:50:35;10.75;;;5.50;;
60714;SDS011;46564;53.096;8.246;2024-02-21T15:55:36;9.05;;;5.28;;
60714;SDS011;46564;53.096;8.246;2024-02-21T16:00:38;15.82;;;5.05;;
60714;SDS011;46564;53.096;8.246;2024-02-21T16:05:41;11.85;;;5.63;;
60714;SDS011;46564;53.096;8.246;2024-02-21T16:10:42;17.50;;;6.50;;
60714;SDS011;46564;53.096;8.246;2024-02-21T16:15:45;13.27;;;6.30;;
60714;SDS011;46564;53.096;8.246;2024-02-21T16:20:47;17.92;;;6.05;;
60714;SDS011;46564;53.096;8.246;2024-02-21T16:25:49;12.32;;;6.13;;
60714;SDS011;46564;53.096;8.246;2024-02-21T16:30:50;16.63;;;5.85;;
60714;SDS011;46564;53.096;8.246;2024-02-21T16:35:52;13.20;;;6.05;;
60714;SDS011;46564;53.096;8.246;2024-02-21T16:40:54;17.20;;;6.63;;
60714;SDS011;46564;53.096;8.246;2024-02-21T16:45:56;13.18;;;6.45;;
60714;SDS011;46564;53.096;8.246;2024-02-21T16:50:58;11.65;;;6.43;;
60714;SDS011;46564;53.096;8.246;2024-02-21T16:56:01;15.27;;;6.68;;
60714;SDS011;46564;53.096;8.246;2024-02-21T17:01:04;13.63;;;6.07;;
60714;SDS011;46564;53.096;8.246;2024-02-21T17:06:06;14.20;;;5.50;;
60714;SDS011;46564;53.096;8.246;2024-02-21T17:11:17;13.23;;;6.35;;
60714;SDS011;46564;53.096;8.246;2024-02-21T17:16:20;16.92;;;5.88;;
60714;SDS011;46564;53.096;8.246;2024-02-21T17:21:22;12.70;;;5.63;;
60714;SDS011;46564;53.096;8.246;2024-02-21T17:26:23;12.05;;;4.60;;
60714;SDS011;46564;53.096;8.246;2024-02-21T17:31:25;13.57;;;4.97;;
60714;SDS011;46564;53.096;8.246;2024-02-21T17:36:27;14.63;;;4.32;;
60714;SDS011;46564;53.096;8.246;2024-02-21T17:41:28;14.73;;;5.20;;
60714;SDS011;46564;53.096;8.246;2024-02-21T17:46:30;12.60;;;4.70;;
60714;SDS011;46564;53.096;8.246;2024-02-21T17:51:32;11.15;;;4.43;;
60714;SDS011;46564;53.096;8.246;2024-02-21T17:56:33;12.38;;;3.67;;
60714;SDS011;46564;53.096;8.246;2024-02-21T18:01:35;14.35;;;4.22;;
60714;SDS011;46564;53.096;8.246;2024-02-21T18:06:36;10.88;;;3.60;;
60714;SDS011;46564;53.096;8.246;2024-02-21T18:11:38;14.27;;;4.35;;
60714;SDS011;46564;53.096;8.246;2024-02-21T18:16:40;9.00;;;3.22;;
60714;SDS011;46564;53.096;8.246;2024-02-21T18:21:42;11.40;;;3.80;;
60714;SDS011;46564;53.096;8.246;2024-02-21T18:26:46;15.63;;;3.97;;
60714;SDS011;46564;53.096;8.246;2024-02-21T18:31:50;10.63;;;3.40;;
60714;SDS011;46564;53.096;8.246;2024-02-21T18:36:55;11.80;;;3.45;;
60714;SDS011;46564;53.096;8.246;2024-02-21T18:41:57;10.27;;;3.30;;
60714;SDS011;46564;53.096;8.246;2024-02-21T18:52:39;13.80;;;4.05;;
60714;SDS011;46564;53.096;8.246;2024-02-21T18:57:44;24.83;;;4.22;;
60714;SDS011;46564;53.096;8.246;2024-02-21T19:02:47;8.95;;;3.50;;
60714;SDS011;46564;53.096;8.246;2024-02-21T19:07:49;10.30;;;4.10;;
60714;SDS011;46564;53.096;8.246;2024-02-21T19:12:51;8.77;;;3.28;;
60714;SDS011;46564;53.096;8.246;2024-02-21T19:17:52;10.15;;;3.60;;
60714;SDS011;46564;53.096;8.246;2024-02-21T19:22:54;10.60;;;3.25;;
60714;SDS011;46564;53.096;8.246;2024-02-21T19:27:55;13.20;;;4.10;;
60714;SDS011;46564;53.096;8.246;2024-02-21T19:32:58;9.57;;;3.60;;
60714;SDS011;46564;53.096;8.246;2024-02-21T19:37:59;9.80;;;3.30;;
60714;SDS011;46564;53.096;8.246;2024-02-21T19:43:01;11.13;;;3.67;;
60714;SDS011;46564;53.096;8.246;2024-02-21T19:48:03;11.00;;;3.90;;
60714;SDS011;46564;53.096;8.246;2024-02-21T19:53:04;12.00;;;3.22;;
60714;SDS011;46564;53.096;8.246;2024-02-21T19:58:06;13.90;;;3.90;;
60714;SDS011;46564;53.096;8.246;2024-02-21T20:03:08;13.40;;;3.45;;
60714;SDS011;46564;53.096;8.246;2024-02-21T20:08:09;8.52;;;3.33;;
60714;SDS011;46564;53.096;8.246;2024-02-21T20:13:11;12.20;;;4.60;;
60714;SDS011;46564;53.096;8.246;2024-02-21T20:18:12;13.25;;;3.95;;
60714;SDS011;46564;53.096;8.246;2024-02-21T20:23:14;13.23;;;4.47;;
60714;SDS011;46564;53.096;8.246;2024-02-21T20:28:16;7.32;;;3.08;;
60714;SDS011;46564;53.096;8.246;2024-02-21T20:33:18;8.60;;;2.83;;
60714;SDS011;46564;53.096;8.246;2024-02-21T20:38:20;11.68;;;3.80;;
60714;SDS011;46564;53.096;8.246;2024-02-21T20:43:21;9.90;;;3.70;;
60714;SDS011;46564;53.096;8.246;2024-02-21T20:48:23;10.25;;;3.17;;
60714;SDS011;46564;53.096;8.246;2024-02-21T20:53:24;9.82;;;3.22;;
60714;SDS011;46564;53.096;8.246;2024-02-21T20:58:26;8.38;;;3.33;;
60714;SDS011;46564;53.096;8.246;2024-02-21T21:03:27;11.27;;;2.90;;
60714;SDS011;46564;53.096;8.246;2024-02-21T21:08:32;13.70;;;3.63;;
60714;SDS011;46564;53.096;8.246;2024-02-21T21:13:34;8.50;;;3.13;;
60714;SDS011;46564;53.096;8.246;2024-02-21T21:18:36;9.50;;;3.30;;
60714;SDS011;46564;53.096;8.246;2024-02-21T21:23:38;15.15;;;3.20;;
60714;SDS011;46564;53.096;8.246;2024-02-21T21:28:39;9.57;;;3.58;;
60714;SDS011;46564;53.096;8.246;2024-02-21T21:33:41;9.23;;;3.50;;
60714;SDS011;46564;53.096;8.246;2024-02-21T21:38:43;15.57;;;3.95;;
60714;SDS011;46564;53.096;8.246;2024-02-21T21:43:44;10.52;;;3.42;;
60714;SDS011;46564;53.096;8.246;2024-02-21T21:48:46;10.48;;;3.25;;
60714;SDS011;46564;53.096;8.246;2024-02-21T21:53:48;8.85;;;3.40;;
60714;SDS011;46564;53.096;8.246;2024-02-21T21:58:49;7.88;;;3.05;;
60714;SDS011;46564;53.096;8.246;2024-02-21T22:03:51;6.15;;;2.85;;
60714;SDS011;46564;53.096;8.246;2024-02-21T22:08:52;8.05;;;3.50;;
60714;SDS011;46564;53.096;8.246;2024-02-21T22:13:54;10.27;;;3.63;;
60714;SDS011;46564;53.096;8.246;2024-02-21T22:18:56;13.73;;;3.38;;
60714;SDS011;46564;53.096;8.246;2024-02-21T22:23:57;7.97;;;3.50;;
60714;SDS011;46564;53.096;8.246;2024-02-21T22:28:59;9.32;;;3.97;;
60714;SDS011;46564;53.096;8.246;2024-02-21T22:34:00;9.45;;;4.30;;
60714;SDS011;46564;53.096;8.246;2024-02-21T22:39:02;10.25;;;4.07;;
60714;SDS011;46564;53.096;8.246;2024-02-21T22:44:04;9.45;;;3.80;;
60714;SDS011;46564;53.096;8.246;2024-02-21T22:49:06;16.88;;;4.13;;
60714;SDS011;46564;53.096;8.246;2024-02-21T22:54:07;9.15;;;4.22;;
60714;SDS011;46564;53.096;8.246;2024-02-21T22:59:09;7.40;;;3.72;;
60714;SDS011;46564;53.096;8.246;2024-02-21T23:04:11;8.65;;;4.82;;
60714;SDS011;46564;53.096;8.246;2024-02-21T23:09:14;8.65;;;4.47;;
60714;SDS011;46564;53.096;8.246;2024-02-21T23:14:15;10.85;;;4.75;;
60714;SDS011;46564;53.096;8.246;2024-02-21T23:19:17;12.23;;;4.90;;
60714;SDS011;46564;53.096;8.246;2024-02-21T23:24:19;10.45;;;5.03;;
60714;SDS011;46564;53.096;8.246;2024-02-21T23:29:20;10.23;;;4.95;;
60714;SDS011;46564;53.096;8.246;2024-02-21T23:34:22;11.50;;;5.57;;
60714;SDS011;46564;53.096;8.246;2024-02-21T23:39:23;9.80;;;5.07;;
60714;SDS011;46564;53.096;8.246;2024-02-21T23:44:25;12.15;;;5.45;;
60714;SDS011;46564;53.096;8.246;2024-02-21T23:49:26;9.70;;;4.97;;
60714;SDS011;46564;53.096;8.246;2024-02-21T23:54:28;9.52;;;5.28;;
60714;SDS011;46564;53.096;8.246;2024-02-21T23:59:29;11.38;;;5.03;;
